Data Viewer
| City | State | Eastern Time | Source | Daily Temp Max | Daily Temp Min | Daily Dew Point Max | Daily Dew Point Min | Daily RH Max | Daily Min RH | Daily BP Max | Daily BP Min | Daily Precip | Daily Wind Max | Daily Wind Max Dir |
|---|---|---|---|---|---|---|---|---|---|---|---|---|---|---|
| Mansfield | NJ | 2026-04-02 | Mesonet | 57 | 41 | 54 | 40 | 99 | 87 | 0.19 | ||||
| Mansfield | NJ | 2026-04-18 | Mesonet | 70 | 49 | 58 | 48 | 100 | 56 | 0.00 | ||||
| Mansfield | NJ | 2026-05-01 | Mesonet | 66 | 43 | 48 | 35 | 95 | 34 | 0.00 | ||||
| Mansfield | NJ | 2026-04-30 | Mesonet | 65 | 47 | 54 | 47 | 100 | 53 | 0.22 | ||||
| Mansfield | NJ | 2026-04-29 | Mesonet | 67 | 48 | 49 | 40 | 99 | 44 | 0.48 | ||||
| Mansfield | NJ | 2026-04-28 | Mesonet | 65 | 38 | 46 | 37 | 100 | 43 | 0.00 | ||||
| Mansfield | NJ | 2026-04-27 | Mesonet | 71 | 37 | 49 | 37 | 100 | 37 | 0.00 | ||||
| Mansfield | NJ | 2026-04-26 | Mesonet | 59 | 41 | 45 | 40 | 100 | 54 | 0.12 | ||||
| Mansfield | NJ | 2026-04-25 | Mesonet | 53 | 42 | 45 | 39 | 100 | 66 | 0.76 | ||||
| Mansfield | NJ | 2026-04-24 | Mesonet | 74 | 49 | 50 | 35 | 90 | 29 | 0.00 | ||||
| Mansfield | NJ | 2026-04-23 | Mesonet | 79 | 42 | 51 | 42 | 100 | 28 | 0.00 | ||||
| Mansfield | NJ | 2026-04-22 | Mesonet | 62 | 45 | 53 | 34 | 93 | 62 | 0.11 | ||||
| Mansfield | NJ | 2026-04-21 | Mesonet | 57 | 28 | 34 | 15 | 90 | 22 | 0.00 | ||||
| Mansfield | NJ | 2026-04-20 | Mesonet | 55 | 35 | 40 | 19 | 100 | 34 | 0.00 | ||||
| Mansfield | NJ | 2026-04-19 | Mesonet | 53 | 39 | 52 | 38 | 100 | 63 | 0.09 | ||||
| Mansfield | NJ | 2026-04-17 | Mesonet | 85 | 64 | 66 | 53 | 80 | 37 | 0.00 | ||||
| Mansfield | NJ | 2026-04-03 | Mesonet | 68 | 41 | 60 | 41 | 100 | 73 | 0.00 | ||||
| Mansfield | NJ | 2026-04-16 | Mesonet | 91 | 64 | 66 | 58 | 91 | 34 | 0.00 | ||||
| Mansfield | NJ | 2026-04-15 | Mesonet | 89 | 61 | 70 | 61 | 100 | 42 | 0.01 | ||||
| Mansfield | NJ | 2026-04-14 | Mesonet | 87 | 60 | 62 | 54 | 81 | 39 | 0.00 | ||||
| Mansfield | NJ | 2026-04-13 | Mesonet | 80 | 46 | 61 | 41 | 93 | 46 | 0.01 | ||||
| Mansfield | NJ | 2026-04-12 | Mesonet | 66 | 39 | 42 | 30 | 83 | 35 | 0.00 | ||||
| Mansfield | NJ | 2026-04-11 | Mesonet | 67 | 49 | 49 | 30 | 91 | 27 | 0.00 | ||||
| Mansfield | NJ | 2026-04-10 | Mesonet | 73 | 40 | 47 | 38 | 94 | 33 | 0.00 | ||||
| Mansfield | NJ | 2026-04-09 | Mesonet | 60 | 29 | 39 | 26 | 95 | 38 | 0.00 | ||||
| Mansfield | NJ | 2026-04-08 | Mesonet | 53 | 30 | 28 | 15 | 80 | 28 | 0.00 | ||||
| Mansfield | NJ | 2026-04-07 | Mesonet | 57 | 36 | 40 | 16 | 78 | 22 | 0.00 | ||||
| Mansfield | NJ | 2026-04-06 | Mesonet | 59 | 41 | 39 | 27 | 70 | 32 | 0.00 | ||||
| Mansfield | NJ | 2026-04-05 | Mesonet | 74 | 45 | 64 | 36 | 100 | 57 | 0.32 | ||||
| Mansfield | NJ | 2026-04-04 | Mesonet | 79 | 45 | 66 | 44 | 100 | 57 | 0.00 | ||||
| Mansfield | NJ | 2026-05-02 | Mesonet | 59 | 47 | 50 | 41 | 98 | 51 | 0.00 |
data collection created in 0.0070288181304932 (queried in 0.001860) rendered in: 4.887580871582E-5

